首页
METAR-TAF:

METAR-TAF

机场 :

杜塞尔多夫机场

杜塞尔多夫, 德国

纬度: 51-18N, 经度: 006-46E, 海拔: 45米

当前天气观测

该预报发布于21分钟前的09:50 UTC
风速10节,风向北转东北,在东转东北之间变化
温度 23°C
湿度 36%
气压 1022 hPa
能见度10公里或以上
1500米以下无云,无积雨云

METAR: EDDL 010950Z 03010KT 360V070 CAVOK 23/07 Q1022 NOSIG

时间: 12:11 (10:11 UTC)

预报

该预报发布于5小时和11分钟前的05:00 UTC
预报有效从01日的 06点(UTC)到 02日的 12点(UTC)
风速4节,风向北转东北
能见度10公里或以上
1500米以下无云,无积雨云
成为
从 01日的 07点(UTC)到 01日的 09点(UTC)
风速9节,风向东北
成为
从 01日的 20点(UTC)到 01日的 22点(UTC)
风速3节,风向东北

TAF: EDDL 010500Z 0106/0212 03004KT CAVOK BECMG 0107/0109 04009KT BECMG 0120/0122 05003KT

超过4000个机场的气象观测和天气预报(METAR&TAF报告)。

可查询的气象台以黄色和红色小点在地图上表示。

将鼠标移到小点上方,可查看气象台名称。

然后点击查看天气观测和预报。

如需切换地图:点击带黑十字的绿色按钮放大地图;点击带横线的绿色按钮缩小地图;或者点击绿色箭头查看邻近地区的地图。


METAR-TAF: